sensor_id;sensor_type;location;lat;lon;timestamp;temperature;humidity
1309;DHT22;647;48.840;9.314;2022-11-15T00:01:07;11.70;1.00
1309;DHT22;647;48.840;9.314;2022-11-15T00:03:34;11.50;1.00
1309;DHT22;647;48.840;9.314;2022-11-15T00:06:02;11.50;1.00
1309;DHT22;647;48.840;9.314;2022-11-15T00:08:31;11.40;1.00
1309;DHT22;647;48.840;9.314;2022-11-15T00:11:00;11.50;1.00
1309;DHT22;647;48.840;9.314;2022-11-15T00:13:28;11.50;1.00
1309;DHT22;647;48.840;9.314;2022-11-15T00:15:57;11.60;1.00
1309;DHT22;647;48.840;9.314;2022-11-15T00:18:24;11.80;1.00
1309;DHT22;647;48.840;9.314;2022-11-15T00:20:51;11.90;1.00
1309;DHT22;647;48.840;9.314;2022-11-15T00:23:18;12.00;1.00
1309;DHT22;647;48.840;9.314;2022-11-15T00:25:46;12.10;1.00
1309;DHT22;647;48.840;9.314;2022-11-15T00:28:13;12.00;1.00
1309;DHT22;647;48.840;9.314;2022-11-15T00:30:39;12.10;1.00
1309;DHT22;647;48.840;9.314;2022-11-15T00:33:06;12.10;1.00
1309;DHT22;647;48.840;9.314;2022-11-15T00:35:34;12.00;1.00
1309;DHT22;647;48.840;9.314;2022-11-15T00:38:02;12.00;1.00
1309;DHT22;647;48.840;9.314;2022-11-15T00:40:29;12.10;1.00
1309;DHT22;647;48.840;9.314;2022-11-15T00:42:57;12.10;1.00
1309;DHT22;647;48.840;9.314;2022-11-15T00:45:24;12.10;1.00
1309;DHT22;647;48.840;9.314;2022-11-15T00:47:51;12.20;1.00
1309;DHT22;647;48.840;9.314;2022-11-15T00:50:19;12.20;1.00
1309;DHT22;647;48.840;9.314;2022-11-15T00:52:45;12.10;1.00
1309;DHT22;647;48.840;9.314;2022-11-15T00:55:14;12.10;1.00
1309;DHT22;647;48.840;9.314;2022-11-15T00:57:41;12.10;1.00
1309;DHT22;647;48.840;9.314;2022-11-15T01:00:11;12.00;1.00
1309;DHT22;647;48.840;9.314;2022-11-15T01:02:38;12.00;1.00
1309;DHT22;647;48.840;9.314;2022-11-15T01:05:05;12.00;1.00
1309;DHT22;647;48.840;9.314;2022-11-15T01:07:32;12.00;1.00
1309;DHT22;647;48.840;9.314;2022-11-15T01:09:59;11.90;1.00
1309;DHT22;647;48.840;9.314;2022-11-15T01:12:25;11.90;1.00
1309;DHT22;647;48.840;9.314;2022-11-15T01:14:52;11.80;1.00
1309;DHT22;647;48.840;9.314;2022-11-15T01:17:20;11.70;1.00
1309;DHT22;647;48.840;9.314;2022-11-15T01:19:47;11.70;1.00
1309;DHT22;647;48.840;9.314;2022-11-15T01:22:14;11.70;1.00
1309;DHT22;647;48.840;9.314;2022-11-15T01:24:41;11.60;1.00
1309;DHT22;647;48.840;9.314;2022-11-15T01:27:08;11.50;1.00
1309;DHT22;647;48.840;9.314;2022-11-15T01:29:35;11.40;1.00
1309;DHT22;647;48.840;9.314;2022-11-15T01:32:02;11.20;1.00
1309;DHT22;647;48.840;9.314;2022-11-15T01:34:30;11.10;1.00
1309;DHT22;647;48.840;9.314;2022-11-15T01:36:58;11.10;1.00
1309;DHT22;647;48.840;9.314;2022-11-15T01:39:25;11.00;1.00
1309;DHT22;647;48.840;9.314;2022-11-15T01:41:51;10.90;1.00
1309;DHT22;647;48.840;9.314;2022-11-15T01:44:40;10.90;1.00
1309;DHT22;647;48.840;9.314;2022-11-15T01:47:10;11.00;1.00
1309;DHT22;647;48.840;9.314;2022-11-15T01:49:43;10.90;1.00
1309;DHT22;647;48.840;9.314;2022-11-15T01:52:13;10.90;1.00
1309;DHT22;647;48.840;9.314;2022-11-15T01:54:42;10.90;1.00
1309;DHT22;647;48.840;9.314;2022-11-15T01:57:10;10.80;1.00
1309;DHT22;647;48.840;9.314;2022-11-15T01:59:40;10.70;1.00
1309;DHT22;647;48.840;9.314;2022-11-15T02:02:08;10.70;1.00
1309;DHT22;647;48.840;9.314;2022-11-15T02:04:40;10.70;1.00
1309;DHT22;647;48.840;9.314;2022-11-15T02:07:09;10.60;1.00
1309;DHT22;647;48.840;9.314;2022-11-15T02:09:37;10.60;1.00
1309;DHT22;647;48.840;9.314;2022-11-15T02:12:05;10.50;1.00
1309;DHT22;647;48.840;9.314;2022-11-15T02:14:34;10.40;1.00
1309;DHT22;647;48.840;9.314;2022-11-15T02:17:13;10.30;1.00
1309;DHT22;647;48.840;9.314;2022-11-15T02:22:55;10.30;1.00
1309;DHT22;647;48.840;9.314;2022-11-15T02:25:37;10.40;1.00
1309;DHT22;647;48.840;9.314;2022-11-15T02:31:14;10.40;1.00
1309;DHT22;647;48.840;9.314;2022-11-15T02:33:53;10.40;1.00
1309;DHT22;647;48.840;9.314;2022-11-15T02:36:29;10.50;1.00
1309;DHT22;647;48.840;9.314;2022-11-15T02:39:00;10.50;1.00
1309;DHT22;647;48.840;9.314;2022-11-15T02:41:31;10.50;1.00
1309;DHT22;647;48.840;9.314;2022-11-15T02:44:06;10.50;1.00
1309;DHT22;647;48.840;9.314;2022-11-15T02:46:37;10.40;1.00
1309;DHT22;647;48.840;9.314;2022-11-15T02:49:23;10.40;1.00
1309;DHT22;647;48.840;9.314;2022-11-15T02:51:52;10.40;1.00
1309;DHT22;647;48.840;9.314;2022-11-15T02:54:23;10.30;1.00
1309;DHT22;647;48.840;9.314;2022-11-15T02:56:51;10.40;1.00
1309;DHT22;647;48.840;9.314;2022-11-15T02:59:56;10.40;1.00
1309;DHT22;647;48.840;9.314;2022-11-15T03:02:48;10.40;1.00
1309;DHT22;647;48.840;9.314;2022-11-15T03:05:28;10.40;1.00
1309;DHT22;647;48.840;9.314;2022-11-15T03:08:02;10.30;1.00
1309;DHT22;647;48.840;9.314;2022-11-15T03:10:39;10.30;1.00
1309;DHT22;647;48.840;9.314;2022-11-15T03:13:16;10.30;1.00
1309;DHT22;647;48.840;9.314;2022-11-15T03:15:51;10.30;1.00
1309;DHT22;647;48.840;9.314;2022-11-15T03:18:25;10.40;1.00
1309;DHT22;647;48.840;9.314;2022-11-15T03:20:55;10.40;1.00
1309;DHT22;647;48.840;9.314;2022-11-15T03:23:22;10.40;1.00
1309;DHT22;647;48.840;9.314;2022-11-15T03:25:50;10.30;1.00
1309;DHT22;647;48.840;9.314;2022-11-15T03:28:22;10.30;1.00
1309;DHT22;647;48.840;9.314;2022-11-15T03:30:50;10.20;1.00
1309;DHT22;647;48.840;9.314;2022-11-15T03:33:20;10.20;1.00
1309;DHT22;647;48.840;9.314;2022-11-15T03:35:48;10.20;1.00
1309;DHT22;647;48.840;9.314;2022-11-15T03:38:19;10.10;1.00
1309;DHT22;647;48.840;9.314;2022-11-15T03:40:54;10.10;1.00
1309;DHT22;647;48.840;9.314;2022-11-15T03:43:30;10.10;1.00
1309;DHT22;647;48.840;9.314;2022-11-15T03:46:02;10.10;1.00
1309;DHT22;647;48.840;9.314;2022-11-15T03:48:35;10.10;1.00
1309;DHT22;647;48.840;9.314;2022-11-15T03:51:04;10.00;1.00
1309;DHT22;647;48.840;9.314;2022-11-15T03:53:31;10.10;1.00
1309;DHT22;647;48.840;9.314;2022-11-15T03:55:58;10.00;1.00
1309;DHT22;647;48.840;9.314;2022-11-15T03:58:25;10.00;1.00
1309;DHT22;647;48.840;9.314;2022-11-15T04:00:52;10.00;1.00
1309;DHT22;647;48.840;9.314;2022-11-15T04:03:18;10.10;1.00
1309;DHT22;647;48.840;9.314;2022-11-15T04:05:46;10.10;1.00
1309;DHT22;647;48.840;9.314;2022-11-15T04:08:13;10.10;1.00
1309;DHT22;647;48.840;9.314;2022-11-15T04:10:40;10.10;1.00
1309;DHT22;647;48.840;9.314;2022-11-15T04:13:07;10.00;1.00
1309;DHT22;647;48.840;9.314;2022-11-15T04:15:34;10.00;1.00
1309;DHT22;647;48.840;9.314;2022-11-15T04:18:01;9.90;1.00
1309;DHT22;647;48.840;9.314;2022-11-15T04:20:29;9.80;1.00
1309;DHT22;647;48.840;9.314;2022-11-15T04:23:16;9.70;1.00
1309;DHT22;647;48.840;9.314;2022-11-15T04:26:03;9.60;1.00
1309;DHT22;647;48.840;9.314;2022-11-15T04:28:30;9.40;1.00
1309;DHT22;647;48.840;9.314;2022-11-15T04:30:57;9.60;1.00
1309;DHT22;647;48.840;9.314;2022-11-15T04:33:24;9.70;1.00
1309;DHT22;647;48.840;9.314;2022-11-15T04:35:51;9.70;1.00
1309;DHT22;647;48.840;9.314;2022-11-15T04:38:34;9.70;1.00
1309;DHT22;647;48.840;9.314;2022-11-15T04:41:01;9.80;1.00
1309;DHT22;647;48.840;9.314;2022-11-15T04:43:28;9.80;1.00
1309;DHT22;647;48.840;9.314;2022-11-15T04:45:55;9.80;1.00
1309;DHT22;647;48.840;9.314;2022-11-15T04:48:22;9.80;1.00
1309;DHT22;647;48.840;9.314;2022-11-15T04:50:49;9.80;1.00
1309;DHT22;647;48.840;9.314;2022-11-15T04:53:16;9.80;1.00
1309;DHT22;647;48.840;9.314;2022-11-15T04:55:45;9.80;1.00
1309;DHT22;647;48.840;9.314;2022-11-15T04:58:12;9.70;1.00
1309;DHT22;647;48.840;9.314;2022-11-15T05:00:39;9.60;1.00
1309;DHT22;647;48.840;9.314;2022-11-15T05:03:06;9.50;1.00
1309;DHT22;647;48.840;9.314;2022-11-15T05:05:50;9.30;1.00
1309;DHT22;647;48.840;9.314;2022-11-15T05:08:17;9.40;1.00
1309;DHT22;647;48.840;9.314;2022-11-15T05:10:45;9.40;1.00
1309;DHT22;647;48.840;9.314;2022-11-15T05:13:12;9.40;1.00
1309;DHT22;647;48.840;9.314;2022-11-15T05:15:39;9.30;1.00
1309;DHT22;647;48.840;9.314;2022-11-15T05:18:06;9.40;1.00
1309;DHT22;647;48.840;9.314;2022-11-15T05:20:32;9.50;1.00
1309;DHT22;647;48.840;9.314;2022-11-15T05:22:59;9.60;1.00
1309;DHT22;647;48.840;9.314;2022-11-15T05:25:26;9.60;1.00
1309;DHT22;647;48.840;9.314;2022-11-15T05:27:54;9.70;1.00
1309;DHT22;647;48.840;9.314;2022-11-15T05:30:21;9.50;1.00
1309;DHT22;647;48.840;9.314;2022-11-15T05:32:48;9.30;1.00
1309;DHT22;647;48.840;9.314;2022-11-15T05:35:31;9.30;1.00
1309;DHT22;647;48.840;9.314;2022-11-15T05:37:59;9.20;1.00
1309;DHT22;647;48.840;9.314;2022-11-15T05:40:27;8.80;1.00
1309;DHT22;647;48.840;9.314;2022-11-15T05:42:55;9.00;1.00
1309;DHT22;647;48.840;9.314;2022-11-15T05:45:23;8.70;1.00
1309;DHT22;647;48.840;9.314;2022-11-15T05:47:50;9.00;1.00
1309;DHT22;647;48.840;9.314;2022-11-15T05:50:18;9.10;1.00
1309;DHT22;647;48.840;9.314;2022-11-15T05:52:46;9.30;1.00
1309;DHT22;647;48.840;9.314;2022-11-15T05:55:14;9.20;1.00
1309;DHT22;647;48.840;9.314;2022-11-15T05:57:41;8.80;1.00
1309;DHT22;647;48.840;9.314;2022-11-15T06:00:10;8.90;1.00
1309;DHT22;647;48.840;9.314;2022-11-15T06:02:37;9.10;1.00
1309;DHT22;647;48.840;9.314;2022-11-15T06:05:04;9.20;1.00
1309;DHT22;647;48.840;9.314;2022-11-15T06:07:31;9.40;1.00
1309;DHT22;647;48.840;9.314;2022-11-15T06:09:58;9.40;1.00
1309;DHT22;647;48.840;9.314;2022-11-15T06:12:25;9.40;1.00
1309;DHT22;647;48.840;9.314;2022-11-15T06:14:52;9.40;1.00
1309;DHT22;647;48.840;9.314;2022-11-15T06:17:20;9.50;1.00
1309;DHT22;647;48.840;9.314;2022-11-15T06:19:46;9.50;1.00
1309;DHT22;647;48.840;9.314;2022-11-15T06:22:13;9.50;1.00
1309;DHT22;647;48.840;9.314;2022-11-15T06:24:40;9.50;1.00
1309;DHT22;647;48.840;9.314;2022-11-15T06:27:07;9.50;1.00
1309;DHT22;647;48.840;9.314;2022-11-15T06:29:33;9.50;1.00
1309;DHT22;647;48.840;9.314;2022-11-15T06:32:00;9.50;1.00
1309;DHT22;647;48.840;9.314;2022-11-15T06:34:28;9.60;1.00
1309;DHT22;647;48.840;9.314;2022-11-15T06:36:55;9.60;1.00
1309;DHT22;647;48.840;9.314;2022-11-15T06:39:22;9.60;1.00
1309;DHT22;647;48.840;9.314;2022-11-15T06:41:49;9.60;1.00
1309;DHT22;647;48.840;9.314;2022-11-15T06:44:15;9.60;1.00
1309;DHT22;647;48.840;9.314;2022-11-15T06:46:42;9.60;1.00
1309;DHT22;647;48.840;9.314;2022-11-15T06:49:09;9.60;1.00
1309;DHT22;647;48.840;9.314;2022-11-15T06:51:37;9.60;1.00
1309;DHT22;647;48.840;9.314;2022-11-15T06:54:04;9.60;1.00
1309;DHT22;647;48.840;9.314;2022-11-15T06:56:31;9.70;1.00
1309;DHT22;647;48.840;9.314;2022-11-15T06:59:00;9.70;1.00
1309;DHT22;647;48.840;9.314;2022-11-15T07:01:26;9.70;1.00
1309;DHT22;647;48.840;9.314;2022-11-15T07:03:53;9.60;1.00
1309;DHT22;647;48.840;9.314;2022-11-15T07:06:20;9.60;1.00
1309;DHT22;647;48.840;9.314;2022-11-15T07:08:49;9.70;1.00
1309;DHT22;647;48.840;9.314;2022-11-15T07:11:15;9.70;1.00
1309;DHT22;647;48.840;9.314;2022-11-15T07:13:42;9.70;1.00
1309;DHT22;647;48.840;9.314;2022-11-15T07:16:10;9.70;1.00
1309;DHT22;647;48.840;9.314;2022-11-15T07:18:38;9.70;1.00
1309;DHT22;647;48.840;9.314;2022-11-15T07:21:06;9.90;1.00
1309;DHT22;647;48.840;9.314;2022-11-15T07:23:36;10.00;1.00
1309;DHT22;647;48.840;9.314;2022-11-15T07:26:05;10.20;1.00
1309;DHT22;647;48.840;9.314;2022-11-15T07:28:32;10.30;1.00
1309;DHT22;647;48.840;9.314;2022-11-15T07:31:02;10.50;1.00
1309;DHT22;647;48.840;9.314;2022-11-15T07:33:28;10.60;1.00
1309;DHT22;647;48.840;9.314;2022-11-15T07:35:58;10.70;1.00
1309;DHT22;647;48.840;9.314;2022-11-15T07:38:27;10.80;1.00
1309;DHT22;647;48.840;9.314;2022-11-15T07:40:56;11.00;1.00
1309;DHT22;647;48.840;9.314;2022-11-15T07:43:25;11.20;1.00
1309;DHT22;647;48.840;9.314;2022-11-15T07:45:53;11.40;1.00
1309;DHT22;647;48.840;9.314;2022-11-15T07:48:20;11.60;1.00
1309;DHT22;647;48.840;9.314;2022-11-15T07:50:47;11.90;1.00
1309;DHT22;647;48.840;9.314;2022-11-15T07:53:14;12.10;1.00
1309;DHT22;647;48.840;9.314;2022-11-15T07:55:41;12.30;1.00
1309;DHT22;647;48.840;9.314;2022-11-15T07:58:10;12.60;1.00
1309;DHT22;647;48.840;9.314;2022-11-15T08:00:38;12.90;1.00
1309;DHT22;647;48.840;9.314;2022-11-15T08:03:07;13.00;1.00
1309;DHT22;647;48.840;9.314;2022-11-15T08:05:35;13.10;1.00
1309;DHT22;647;48.840;9.314;2022-11-15T08:08:02;13.40;1.00
1309;DHT22;647;48.840;9.314;2022-11-15T08:10:29;13.50;1.00
1309;DHT22;647;48.840;9.314;2022-11-15T08:12:57;13.70;1.00
1309;DHT22;647;48.840;9.314;2022-11-15T08:15:25;13.90;1.00
1309;DHT22;647;48.840;9.314;2022-11-15T08:17:55;14.00;1.00
1309;DHT22;647;48.840;9.314;2022-11-15T08:20:22;14.30;1.00
1309;DHT22;647;48.840;9.314;2022-11-15T08:22:49;14.40;1.00
1309;DHT22;647;48.840;9.314;2022-11-15T08:25:16;14.70;1.00
1309;DHT22;647;48.840;9.314;2022-11-15T08:27:43;14.80;1.00
1309;DHT22;647;48.840;9.314;2022-11-15T08:30:11;14.80;1.00
1309;DHT22;647;48.840;9.314;2022-11-15T08:32:38;15.00;1.00
1309;DHT22;647;48.840;9.314;2022-11-15T08:35:07;15.20;1.00
1309;DHT22;647;48.840;9.314;2022-11-15T08:37:34;15.30;1.00
1309;DHT22;647;48.840;9.314;2022-11-15T08:40:01;15.40;1.00
1309;DHT22;647;48.840;9.314;2022-11-15T08:42:28;15.50;1.00
1309;DHT22;647;48.840;9.314;2022-11-15T08:44:55;15.60;1.00
1309;DHT22;647;48.840;9.314;2022-11-15T08:47:21;15.60;1.00
1309;DHT22;647;48.840;9.314;2022-11-15T08:49:49;15.60;1.00
1309;DHT22;647;48.840;9.314;2022-11-15T08:52:17;15.70;1.00
1309;DHT22;647;48.840;9.314;2022-11-15T08:54:44;15.70;1.00
1309;DHT22;647;48.840;9.314;2022-11-15T08:57:11;15.70;1.00
1309;DHT22;647;48.840;9.314;2022-11-15T08:59:38;15.60;1.00
1309;DHT22;647;48.840;9.314;2022-11-15T09:02:05;15.20;1.00
1309;DHT22;647;48.840;9.314;2022-11-15T09:04:32;15.10;1.00
1309;DHT22;647;48.840;9.314;2022-11-15T09:06:59;15.20;1.00
1309;DHT22;647;48.840;9.314;2022-11-15T09:09:27;15.30;1.00
1309;DHT22;647;48.840;9.314;2022-11-15T09:11:54;15.60;1.00
1309;DHT22;647;48.840;9.314;2022-11-15T09:14:21;15.80;1.00
1309;DHT22;647;48.840;9.314;2022-11-15T09:16:47;15.60;99.90
1309;DHT22;647;48.840;9.314;2022-11-15T09:19:14;15.60;99.90
1309;DHT22;647;48.840;9.314;2022-11-15T09:21:41;15.60;99.90
1309;DHT22;647;48.840;9.314;2022-11-15T09:24:08;16.20;99.90
1309;DHT22;647;48.840;9.314;2022-11-15T09:26:36;16.20;99.90
1309;DHT22;647;48.840;9.314;2022-11-15T09:29:03;15.80;99.90
1309;DHT22;647;48.840;9.314;2022-11-15T09:31:30;16.30;99.90
1309;DHT22;647;48.840;9.314;2022-11-15T09:33:57;16.90;99.90
1309;DHT22;647;48.840;9.314;2022-11-15T09:36:24;17.60;99.90
1309;DHT22;647;48.840;9.314;2022-11-15T09:38:51;18.30;99.90
1309;DHT22;647;48.840;9.314;2022-11-15T09:41:48;18.50;99.90
1309;DHT22;647;48.840;9.314;2022-11-15T09:44:42;18.50;99.90
1309;DHT22;647;48.840;9.314;2022-11-15T09:52:46;21.20;99.90
1309;DHT22;647;48.840;9.314;2022-11-15T09:55:14;22.00;99.90
1309;DHT22;647;48.840;9.314;2022-11-15T09:57:52;23.40;99.90
1309;DHT22;647;48.840;9.314;2022-11-15T10:00:24;24.30;99.90
1309;DHT22;647;48.840;9.314;2022-11-15T10:03:06;25.00;99.90
1309;DHT22;647;48.840;9.314;2022-11-15T10:05:39;26.30;99.90
1309;DHT22;647;48.840;9.314;2022-11-15T10:08:22;27.80;99.90
1309;DHT22;647;48.840;9.314;2022-11-15T10:10:55;28.40;99.90
1309;DHT22;647;48.840;9.314;2022-11-15T10:13:25;28.20;99.90
1309;DHT22;647;48.840;9.314;2022-11-15T10:15:53;28.70;99.90
1309;DHT22;647;48.840;9.314;2022-11-15T10:18:25;28.90;99.90
1309;DHT22;647;48.840;9.314;2022-11-15T10:20:59;28.40;99.90
1309;DHT22;647;48.840;9.314;2022-11-15T10:23:27;27.10;99.90
1309;DHT22;647;48.840;9.314;2022-11-15T10:25:56;26.00;99.90
1309;DHT22;647;48.840;9.314;2022-11-15T10:28:27;25.10;99.90
1309;DHT22;647;48.840;9.314;2022-11-15T10:30:56;24.50;99.90
1309;DHT22;647;48.840;9.314;2022-11-15T10:33:30;23.80;99.90
1309;DHT22;647;48.840;9.314;2022-11-15T10:36:19;23.40;99.90
1309;DHT22;647;48.840;9.314;2022-11-15T10:38:58;23.10;99.90
1309;DHT22;647;48.840;9.314;2022-11-15T10:41:37;22.70;99.90
1309;DHT22;647;48.840;9.314;2022-11-15T10:44:21;22.60;99.90
1309;DHT22;647;48.840;9.314;2022-11-15T10:47:06;22.40;99.90
1309;DHT22;647;48.840;9.314;2022-11-15T10:49:35;22.30;99.90
1309;DHT22;647;48.840;9.314;2022-11-15T10:52:04;22.10;99.90
1309;DHT22;647;48.840;9.314;2022-11-15T10:54:38;22.00;99.90
1309;DHT22;647;48.840;9.314;2022-11-15T10:57:11;21.80;99.90
1309;DHT22;647;48.840;9.314;2022-11-15T10:59:44;21.50;99.90
1309;DHT22;647;48.840;9.314;2022-11-15T11:02:28;21.40;99.90
1309;DHT22;647;48.840;9.314;2022-11-15T11:04:55;21.30;99.90
1309;DHT22;647;48.840;9.314;2022-11-15T11:07:23;21.30;99.90
1309;DHT22;647;48.840;9.314;2022-11-15T11:09:57;21.30;99.90
1309;DHT22;647;48.840;9.314;2022-11-15T11:12:28;21.10;99.90
1309;DHT22;647;48.840;9.314;2022-11-15T11:14:57;20.70;99.90
1309;DHT22;647;48.840;9.314;2022-11-15T11:17:32;20.20;99.90
1309;DHT22;647;48.840;9.314;2022-11-15T11:20:05;20.20;99.90
1309;DHT22;647;48.840;9.314;2022-11-15T11:22:39;19.90;99.90
1309;DHT22;647;48.840;9.314;2022-11-15T11:25:18;19.80;99.90
1309;DHT22;647;48.840;9.314;2022-11-15T11:28:05;19.70;99.90
1309;DHT22;647;48.840;9.314;2022-11-15T11:30:43;19.70;99.90
1309;DHT22;647;48.840;9.314;2022-11-15T11:33:17;19.70;99.90
1309;DHT22;647;48.840;9.314;2022-11-15T11:35:55;19.70;99.90
1309;DHT22;647;48.840;9.314;2022-11-15T11:38:44;19.60;99.90
1309;DHT22;647;48.840;9.314;2022-11-15T11:41:24;19.80;99.90
1309;DHT22;647;48.840;9.314;2022-11-15T11:44:02;20.00;99.90
1309;DHT22;647;48.840;9.314;2022-11-15T11:46:46;20.20;99.90
1309;DHT22;647;48.840;9.314;2022-11-15T11:49:18;20.10;99.90
1309;DHT22;647;48.840;9.314;2022-11-15T11:51:49;20.40;99.90
1309;DHT22;647;48.840;9.314;2022-11-15T11:54:22;20.30;99.90
1309;DHT22;647;48.840;9.314;2022-11-15T11:56:50;20.20;99.90
1309;DHT22;647;48.840;9.314;2022-11-15T11:59:23;20.30;99.90
1309;DHT22;647;48.840;9.314;2022-11-15T12:01:54;20.00;99.90
1309;DHT22;647;48.840;9.314;2022-11-15T12:04:26;19.80;99.90
1309;DHT22;647;48.840;9.314;2022-11-15T12:06:58;19.80;99.90
1309;DHT22;647;48.840;9.314;2022-11-15T12:09:31;19.80;99.90
1309;DHT22;647;48.840;9.314;2022-11-15T12:12:04;19.90;99.90
1309;DHT22;647;48.840;9.314;2022-11-15T12:14:36;19.70;99.90
1309;DHT22;647;48.840;9.314;2022-11-15T12:17:08;19.50;99.90
1309;DHT22;647;48.840;9.314;2022-11-15T12:19:36;19.80;99.90
1309;DHT22;647;48.840;9.314;2022-11-15T12:22:06;20.30;99.90
1309;DHT22;647;48.840;9.314;2022-11-15T12:24:39;20.70;99.90
1309;DHT22;647;48.840;9.314;2022-11-15T12:27:31;20.80;99.90
1309;DHT22;647;48.840;9.314;2022-11-15T12:30:03;20.80;99.90
1309;DHT22;647;48.840;9.314;2022-11-15T12:32:34;20.90;99.90
1309;DHT22;647;48.840;9.314;2022-11-15T12:35:03;20.30;99.90
1309;DHT22;647;48.840;9.314;2022-11-15T12:37:50;19.90;99.90
1309;DHT22;647;48.840;9.314;2022-11-15T12:40:34;19.60;99.90
1309;DHT22;647;48.840;9.314;2022-11-15T12:43:03;19.70;99.90
1309;DHT22;647;48.840;9.314;2022-11-15T12:45:32;19.90;99.90
1309;DHT22;647;48.840;9.314;2022-11-15T12:51:07;19.60;99.90
1309;DHT22;647;48.840;9.314;2022-11-15T12:53:34;19.40;99.90
1309;DHT22;647;48.840;9.314;2022-11-15T12:56:25;19.30;99.90
1309;DHT22;647;48.840;9.314;2022-11-15T12:58:54;19.30;99.90
1309;DHT22;647;48.840;9.314;2022-11-15T13:01:56;19.30;99.90
1309;DHT22;647;48.840;9.314;2022-11-15T13:04:25;19.30;99.90
1309;DHT22;647;48.840;9.314;2022-11-15T13:06:56;19.30;99.90
1309;DHT22;647;48.840;9.314;2022-11-15T13:12:54;19.00;99.90
1309;DHT22;647;48.840;9.314;2022-11-15T13:18:34;18.80;99.90
1309;DHT22;647;48.840;9.314;2022-11-15T13:21:04;18.80;99.90
1309;DHT22;647;48.840;9.314;2022-11-15T13:24:03;18.10;99.90
1309;DHT22;647;48.840;9.314;2022-11-15T13:26:31;17.70;99.90
1309;DHT22;647;48.840;9.314;2022-11-15T13:28:58;17.90;99.90
1309;DHT22;647;48.840;9.314;2022-11-15T13:31:29;17.80;99.90
1309;DHT22;647;48.840;9.314;2022-11-15T13:33:59;17.70;99.90
1309;DHT22;647;48.840;9.314;2022-11-15T13:36:29;17.50;99.90
1309;DHT22;647;48.840;9.314;2022-11-15T13:38:59;17.50;99.90
1309;DHT22;647;48.840;9.314;2022-11-15T13:41:30;17.70;99.90
1309;DHT22;647;48.840;9.314;2022-11-15T13:43:58;17.10;99.90
1309;DHT22;647;48.840;9.314;2022-11-15T13:46:27;16.90;99.90
1309;DHT22;647;48.840;9.314;2022-11-15T13:48:56;17.10;99.90
1309;DHT22;647;48.840;9.314;2022-11-15T13:51:34;17.50;99.90
1309;DHT22;647;48.840;9.314;2022-11-15T13:54:06;17.80;99.90
1309;DHT22;647;48.840;9.314;2022-11-15T13:56:36;17.90;99.90
1309;DHT22;647;48.840;9.314;2022-11-15T13:59:09;17.50;99.90
1309;DHT22;647;48.840;9.314;2022-11-15T14:01:36;17.70;99.90
1309;DHT22;647;48.840;9.314;2022-11-15T14:04:04;17.40;99.90
1309;DHT22;647;48.840;9.314;2022-11-15T14:06:31;17.50;99.90
1309;DHT22;647;48.840;9.314;2022-11-15T14:09:13;17.80;99.90
1309;DHT22;647;48.840;9.314;2022-11-15T14:11:51;17.90;99.90
1309;DHT22;647;48.840;9.314;2022-11-15T14:14:20;18.00;99.90
1309;DHT22;647;48.840;9.314;2022-11-15T14:16:49;18.10;99.90
1309;DHT22;647;48.840;9.314;2022-11-15T14:19:37;18.20;99.90
1309;DHT22;647;48.840;9.314;2022-11-15T14:22:19;18.20;99.90
1309;DHT22;647;48.840;9.314;2022-11-15T14:25:15;18.20;99.90
1309;DHT22;647;48.840;9.314;2022-11-15T14:28:07;18.10;99.90
1309;DHT22;647;48.840;9.314;2022-11-15T14:30:31;18.00;99.90
1309;DHT22;647;48.840;9.314;2022-11-15T14:32:58;18.00;99.90
1309;DHT22;647;48.840;9.314;2022-11-15T14:35:25;17.90;99.90
1309;DHT22;647;48.840;9.314;2022-11-15T14:37:52;17.80;99.90
1309;DHT22;647;48.840;9.314;2022-11-15T14:40:20;17.70;99.90
1309;DHT22;647;48.840;9.314;2022-11-15T14:42:50;17.50;99.90
1309;DHT22;647;48.840;9.314;2022-11-15T14:45:18;17.50;99.90
1309;DHT22;647;48.840;9.314;2022-11-15T14:47:45;17.40;99.90
1309;DHT22;647;48.840;9.314;2022-11-15T14:50:13;17.20;99.90
1309;DHT22;647;48.840;9.314;2022-11-15T14:52:40;17.10;99.90
1309;DHT22;647;48.840;9.314;2022-11-15T14:55:15;17.10;99.90
1309;DHT22;647;48.840;9.314;2022-11-15T14:57:44;17.00;99.90
1309;DHT22;647;48.840;9.314;2022-11-15T15:00:13;17.00;99.90
1309;DHT22;647;48.840;9.314;2022-11-15T15:02:41;16.90;99.90
1309;DHT22;647;48.840;9.314;2022-11-15T15:05:16;16.70;99.90
1309;DHT22;647;48.840;9.314;2022-11-15T15:07:44;16.60;1.00
1309;DHT22;647;48.840;9.314;2022-11-15T15:10:12;16.50;1.00
1309;DHT22;647;48.840;9.314;2022-11-15T15:12:39;16.50;1.00
1309;DHT22;647;48.840;9.314;2022-11-15T15:15:09;16.40;1.00
1309;DHT22;647;48.840;9.314;2022-11-15T15:17:40;16.30;1.00
1309;DHT22;647;48.840;9.314;2022-11-15T15:20:07;16.30;1.00
1309;DHT22;647;48.840;9.314;2022-11-15T15:22:34;16.30;1.00
1309;DHT22;647;48.840;9.314;2022-11-15T15:25:01;16.20;1.00
1309;DHT22;647;48.840;9.314;2022-11-15T15:27:29;16.10;1.00
1309;DHT22;647;48.840;9.314;2022-11-15T15:29:56;15.90;1.00
1309;DHT22;647;48.840;9.314;2022-11-15T15:32:23;15.80;1.00
1309;DHT22;647;48.840;9.314;2022-11-15T15:34:51;15.80;1.00
1309;DHT22;647;48.840;9.314;2022-11-15T15:37:22;15.80;1.00
1309;DHT22;647;48.840;9.314;2022-11-15T15:39:50;15.70;1.00
1309;DHT22;647;48.840;9.314;2022-11-15T15:42:18;15.80;1.00
1309;DHT22;647;48.840;9.314;2022-11-15T15:44:45;15.60;1.00
1309;DHT22;647;48.840;9.314;2022-11-15T15:47:13;15.60;1.00
1309;DHT22;647;48.840;9.314;2022-11-15T15:49:40;15.60;1.00
1309;DHT22;647;48.840;9.314;2022-11-15T15:52:08;15.50;1.00
1309;DHT22;647;48.840;9.314;2022-11-15T15:54:35;15.50;1.00
1309;DHT22;647;48.840;9.314;2022-11-15T15:57:02;15.50;1.00
1309;DHT22;647;48.840;9.314;2022-11-15T15:59:28;15.50;1.00
1309;DHT22;647;48.840;9.314;2022-11-15T16:01:55;15.40;1.00
1309;DHT22;647;48.840;9.314;2022-11-15T16:04:22;15.40;1.00
1309;DHT22;647;48.840;9.314;2022-11-15T16:06:49;15.40;1.00
1309;DHT22;647;48.840;9.314;2022-11-15T16:09:21;15.40;1.00
1309;DHT22;647;48.840;9.314;2022-11-15T16:12:09;15.30;1.00
1309;DHT22;647;48.840;9.314;2022-11-15T16:14:35;15.30;1.00
1309;DHT22;647;48.840;9.314;2022-11-15T16:17:03;15.20;1.00
1309;DHT22;647;48.840;9.314;2022-11-15T16:19:30;14.90;1.00
1309;DHT22;647;48.840;9.314;2022-11-15T16:21:57;15.00;1.00
1309;DHT22;647;48.840;9.314;2022-11-15T16:24:25;15.00;1.00
1309;DHT22;647;48.840;9.314;2022-11-15T16:26:52;15.00;1.00
1309;DHT22;647;48.840;9.314;2022-11-15T16:29:18;15.00;1.00
1309;DHT22;647;48.840;9.314;2022-11-15T16:31:45;14.90;1.00
1309;DHT22;647;48.840;9.314;2022-11-15T16:34:12;14.90;1.00
1309;DHT22;647;48.840;9.314;2022-11-15T16:36:39;14.90;1.00
1309;DHT22;647;48.840;9.314;2022-11-15T16:39:05;14.90;1.00
1309;DHT22;647;48.840;9.314;2022-11-15T16:41:34;14.90;1.00
1309;DHT22;647;48.840;9.314;2022-11-15T16:44:00;15.00;1.00
1309;DHT22;647;48.840;9.314;2022-11-15T16:46:28;15.00;1.00
1309;DHT22;647;48.840;9.314;2022-11-15T16:48:54;15.10;1.00
1309;DHT22;647;48.840;9.314;2022-11-15T16:51:22;15.10;1.00
1309;DHT22;647;48.840;9.314;2022-11-15T16:53:49;15.00;1.00
1309;DHT22;647;48.840;9.314;2022-11-15T16:56:22;14.80;1.00
1309;DHT22;647;48.840;9.314;2022-11-15T16:58:51;14.70;1.00
1309;DHT22;647;48.840;9.314;2022-11-15T17:01:21;14.80;1.00
1309;DHT22;647;48.840;9.314;2022-11-15T17:03:49;14.90;1.00
1309;DHT22;647;48.840;9.314;2022-11-15T17:06:15;14.80;1.00
1309;DHT22;647;48.840;9.314;2022-11-15T17:08:43;14.80;1.00
1309;DHT22;647;48.840;9.314;2022-11-15T17:13:40;14.90;1.00
1309;DHT22;647;48.840;9.314;2022-11-15T17:16:10;14.80;1.00